Time;durP1;ratioP1;P1;durP2;ratioP2;P2;SDS_P1;SDS_P2;PMS_P1;PMS_P2;Temp;Humidity;BMP_temperature;BMP_pressure;BME280_temperature;BME280_humidity;BME280_pressure;Samples;Min_cycle;Max_cycle;Signal;HPM_P1;HPM_P2
2022/06/12 00:00:39;;;;;;;13.60;11.10;;;;;;;17.46;70.15;100461.66;1825256;78;21127;-86
2022/06/12 00:03:08;;;;;;;23.25;14.40;;;;;;;17.47;69.98;100468.61;1824924;78;20868;-87
2022/06/12 00:05:40;;;;;;;18.90;12.58;;;;;;;17.46;69.97;100474.08;1825695;78;20879;-85
2022/06/12 00:08:07;;;;;;;16.95;11.50;;;;;;;17.44;69.78;100459.62;1825244;78;21367;-87
2022/06/12 00:10:35;;;;;;;20.68;13.85;;;;;;;17.44;69.94;100472.88;1825085;78;20895;-88
2022/06/12 00:13:03;;;;;;;21.15;11.85;;;;;;;17.39;69.98;100452.09;1824933;78;21241;-87
2022/06/12 00:15:29;;;;;;;20.77;13.90;;;;;;;17.37;70.10;100467.80;1825116;78;20906;-87
2022/06/12 00:17:58;;;;;;;19.32;14.90;;;;;;;17.33;70.05;100457.13;1825136;78;20998;-86
2022/06/12 00:20:25;;;;;;;18.35;13.53;;;;;;;17.29;70.02;100457.87;1825134;78;20895;-86
2022/06/12 00:22:52;;;;;;;20.30;12.47;;;;;;;17.22;70.04;100455.44;1825085;78;20963;-86
2022/06/12 00:25:19;;;;;;;19.05;13.90;;;;;;;17.18;70.19;100461.50;1824949;78;21084;-87
2022/06/12 00:27:45;;;;;;;24.67;14.38;;;;;;;17.15;70.32;100452.52;1825137;78;21346;-84
2022/06/12 00:30:16;;;;;;;20.48;13.65;;;;;;;17.12;70.42;100443.98;1825254;78;20887;-86
2022/06/12 00:32:44;;;;;;;25.88;16.45;;;;;;;17.09;70.63;100441.63;1825166;78;20947;-86
2022/06/12 00:35:11;;;;;;;25.25;14.73;;;;;;;17.06;70.72;100449.38;1825301;78;21013;-87
2022/06/12 00:37:37;;;;;;;28.70;15.85;;;;;;;17.03;70.71;100444.36;1825280;78;21189;-86
2022/06/12 00:40:05;;;;;;;22.70;14.65;;;;;;;17.01;70.70;100448.96;1824833;78;20970;-86
2022/06/12 00:42:36;;;;;;;21.82;16.05;;;;;;;16.97;70.92;100448.38;1825135;78;20907;-86
2022/06/12 00:45:35;;;;;;;38.25;21.17;;;;;;;16.94;71.10;100451.33;1825050;78;21052;-86
2022/06/12 00:48:09;;;;;;;42.58;24.32;;;;;;;16.91;71.30;100450.25;1825076;78;20955;-86
2022/06/12 00:50:41;;;;;;;47.50;25.77;;;;;;;16.88;71.65;100455.00;1825380;78;21141;-85
2022/06/12 00:53:11;;;;;;;51.02;29.10;;;;;;;16.84;71.89;100454.43;1825174;78;20876;-86
2022/06/12 00:55:58;;;;;;;45.15;26.55;;;;;;;16.81;71.98;100449.41;1825263;78;20914;-86
2022/06/12 00:58:26;;;;;;;36.77;22.55;;;;;;;16.79;72.03;100456.63;1825358;78;20891;-84
2022/06/12 01:00:52;;;;;;;35.33;23.45;;;;;;;16.74;72.19;100461.47;1825202;78;20927;-86
2022/06/12 01:03:20;;;;;;;32.50;21.35;;;;;;;16.69;72.26;100465.85;1825343;78;21106;-87
2022/06/12 01:08:34;;;;;;;28.60;18.77;;;;;;;16.61;72.41;100461.73;1825504;78;20986;-86
2022/06/12 01:11:04;;;;;;;23.70;17.45;;;;;;;16.57;72.33;100461.16;1826117;78;20955;-86
2022/06/12 01:13:35;;;;;;;26.68;18.35;;;;;;;16.56;72.35;100462.61;1798941;78;20997;-86
2022/06/12 01:16:07;;;;;;;19.85;16.67;;;;;;;16.53;71.87;100460.25;1797964;78;21216;-87
2022/06/12 01:18:38;;;;;;;23.27;17.82;;;;;;;16.50;71.40;100457.87;1797817;78;20907;-86
2022/06/12 01:21:35;;;;;;;26.97;18.00;;;;;;;16.46;71.24;100463.91;1797671;78;20879;-86
2022/06/12 01:24:29;;;;;;;26.33;17.75;;;;;;;16.43;71.34;100462.01;1797472;78;20930;-85
2022/06/12 01:27:33;;;;;;;24.82;17.57;;;;;;;16.38;71.47;100457.12;1797640;77;20907;-86
2022/06/12 01:30:14;;;;;;;22.58;16.77;;;;;;;16.40;71.55;100450.37;1796627;78;21798;-86
2022/06/12 01:33:00;;;;;;;26.20;18.05;;;;;;;16.42;71.56;100449.76;1797426;79;20926;-86
2022/06/12 01:35:44;;;;;;;26.82;17.73;;;;;;;16.41;71.55;100452.90;1772937;79;20903;-83
2022/06/12 01:38:34;;;;;;;23.30;18.27;;;;;;;16.43;71.48;100450.96;1797672;78;20935;-87
2022/06/12 01:41:27;;;;;;;26.33;18.95;;;;;;;16.44;71.76;100440.70;1798738;77;20986;-86
2022/06/12 01:44:14;;;;;;;24.67;18.07;;;;;;;16.45;71.65;100442.86;1800252;77;21219;-86
2022/06/12 01:46:47;;;;;;;26.45;17.92;;;;;;;16.44;71.35;100442.53;1800055;78;20871;-85
2022/06/12 01:49:25;;;;;;;27.55;18.20;;;;;;;16.41;71.26;100442.77;1800052;77;20919;-86
2022/06/12 01:52:25;;;;;;;30.23;18.30;;;;;;;16.37;71.46;100445.70;1800131;77;20919;-85
2022/06/12 01:54:59;;;;;;;26.73;17.95;;;;;;;16.34;71.78;100449.95;1778178;77;20875;-85
2022/06/12 01:57:35;;;;;;;27.48;19.15;;;;;;;16.31;72.27;100455.98;1799167;77;21182;-85
2022/06/12 02:00:18;;;;;;;27.05;19.23;;;;;;;16.29;72.53;100454.78;1800455;77;20880;-84
2022/06/12 02:02:56;;;;;;;25.27;17.87;;;;;;;16.28;72.77;100457.09;1800145;77;20875;-86
2022/06/12 02:05:31;;;;;;;24.47;17.77;;;;;;;16.27;72.88;100449.27;1799992;77;20867;-85
2022/06/12 02:08:31;;;;;;;22.25;17.65;;;;;;;16.27;72.78;100451.92;1798681;77;20985;-85
2022/06/12 02:14:07;;;;;;;25.85;17.62;;;;;;;16.26;72.96;100456.88;1704328;81;20983;-85
2022/06/12 02:16:38;;;;;;;24.72;18.40;;;;;;;16.23;73.08;100461.09;1705102;81;21006;-84
2022/06/12 02:19:19;;;;;;;26.42;18.70;;;;;;;16.21;73.26;100461.25;1705055;81;20956;-84
2022/06/12 02:21:55;;;;;;;26.40;19.05;;;;;;;16.20;73.51;100460.05;1704887;83;20919;-85
2022/06/12 02:24:32;;;;;;;28.23;19.50;;;;;;;16.19;73.37;100461.03;1703152;81;21202;-86
2022/06/12 02:27:12;;;;;;;28.62;19.05;;;;;;;16.20;73.49;100458.23;1659296;83;20923;-86
2022/06/12 02:30:04;;;;;;;25.72;18.27;;;;;;;16.23;73.39;100454.48;1704974;84;20891;-86
2022/06/12 02:32:42;;;;;;;26.62;19.00;;;;;;;16.25;73.39;100459.16;1704598;84;20982;-85
2022/06/12 02:35:26;;;;;;;32.85;19.80;;;;;;;16.26;73.19;100451.59;1704406;84;20980;-85
2022/06/12 02:38:05;;;;;;;24.60;18.25;;;;;;;16.28;73.05;100453.61;1704982;81;21107;-86
2022/06/12 02:40:38;;;;;;;23.62;19.73;;;;;;;16.28;72.73;100450.48;1704961;81;20915;-86
2022/06/12 02:43:09;;;;;;;25.72;18.80;;;;;;;16.30;72.74;100456.48;1703437;83;20937;-86
2022/06/12 02:45:42;;;;;;;28.30;19.17;;;;;;;16.33;72.87;100458.02;1703777;84;20974;-87
2022/06/12 02:48:09;;;;;;;29.00;18.37;;;;;;;16.35;72.92;100458.72;1703415;84;20959;-86
2022/06/12 02:50:56;;;;;;;32.50;19.30;;;;;;;16.38;72.90;100458.44;1782691;79;21231;-84
2022/06/12 02:54:00;;;;;;;29.95;17.92;;;;;;;16.39;72.98;100458.81;1797495;78;21377;-84
2022/06/12 02:56:47;;;;;;;31.27;19.85;;;;;;;16.44;72.75;100493.64;1797592;78;20844;-85
2022/06/12 02:59:35;;;;;;;23.22;17.35;;;;;;;16.48;72.67;100488.45;1797523;78;21369;-85
2022/06/12 03:02:19;;;;;;;20.77;16.15;;;;;;;16.54;72.94;100472.03;1797170;79;20965;-87
2022/06/12 03:05:00;;;;;;;25.48;16.82;;;;;;;16.63;73.30;100474.83;1797499;79;21376;-88
2022/06/12 03:07:30;;;;;;;22.60;15.08;;;;;;;16.76;73.69;100489.98;1788735;78;20876;-85
2022/06/12 03:09:59;;;;;;;21.82;15.30;;;;;;;16.87;74.12;100487.25;1798445;78;20875;-87
2022/06/12 03:12:28;;;;;;;25.85;16.77;;;;;;;16.99;74.24;100472.10;1803764;78;21381;-86
2022/06/12 03:14:55;;;;;;;28.05;17.90;;;;;;;17.11;74.18;100480.26;1825514;77;20880;-86
2022/06/12 03:17:22;;;;;;;26.80;19.20;;;;;;;17.22;73.97;100477.14;1825163;78;21140;-86
2022/06/12 03:19:54;;;;;;;28.52;18.65;;;;;;;17.30;73.57;100470.66;1825051;77;20876;-86
2022/06/12 03:22:29;;;;;;;25.05;17.82;;;;;;;17.37;73.35;100473.10;1825251;78;20875;-86
2022/06/12 03:25:17;;;;;;;23.22;17.45;;;;;;;17.44;73.12;100482.66;1755996;80;20893;-87
2022/06/12 03:28:03;;;;;;;23.55;17.37;;;;;;;17.51;72.82;100480.63;1756807;81;21019;-86
2022/06/12 03:30:59;;;;;;;30.32;17.73;;;;;;;17.60;72.60;100480.27;1786293;80;21250;-83
2022/06/12 03:33:35;;;;;;;26.62;18.80;;;;;;;17.70;72.43;100476.30;1786391;79;20878;-86
2022/06/12 03:36:18;;;;;;;23.83;16.93;;;;;;;17.77;72.29;100476.90;1786496;80;21007;-86
2022/06/12 03:39:02;;;;;;;24.63;17.25;;;;;;;17.85;72.04;100474.87;1781108;80;21363;-86
2022/06/12 03:41:49;;;;;;;23.62;17.48;;;;;;;17.94;71.76;100469.20;1786945;80;21356;-86
2022/06/12 03:44:39;;;;;;;25.37;17.55;;;;;;;18.02;71.59;100462.20;1785115;80;21949;-85
2022/06/12 03:47:16;;;;;;;24.43;16.70;;;;;;;18.14;71.52;100460.70;1786440;80;21439;-83
2022/06/12 03:50:10;;;;;;;24.20;17.17;;;;;;;18.24;71.47;100454.88;1786421;80;20890;-86
2022/06/12 03:52:44;;;;;;;29.27;17.48;;;;;;;18.32;71.50;100457.64;1785910;80;20934;-86
2022/06/12 03:57:50;;;;;;;22.65;16.10;;;;;;;18.44;71.49;100460.44;1784592;80;20952;-86
2022/06/12 03:57:53;;;;;;;25.12;15.25;;;;;;;18.56;71.40;100461.57;1782098;80;21258;-86
2022/06/12 04:00:40;;;;;;;28.85;17.00;;;;;;;18.69;70.96;100459.91;1785983;80;20979;-86
2022/06/12 04:03:13;;;;;;;23.62;16.62;;;;;;;18.81;70.41;100453.44;1786200;80;20889;-86
2022/06/12 04:05:47;;;;;;;22.77;15.98;;;;;;;18.94;69.85;100453.91;1786227;80;21004;-86
2022/06/12 04:08:19;;;;;;;23.35;15.83;;;;;;;19.07;69.08;100457.51;1786231;80;20960;-87
2022/06/12 04:10:47;;;;;;;30.77;15.50;;;;;;;19.18;68.55;100450.63;1786212;80;21892;-85
2022/06/12 04:13:15;;;;;;;21.97;15.40;;;;;;;19.30;67.99;100453.05;1784691;79;20937;-86
2022/06/12 04:15:47;;;;;;;22.90;16.65;;;;;;;19.41;67.55;100460.33;1821658;78;21010;-86
2022/06/12 04:18:15;;;;;;;31.40;16.40;;;;;;;19.52;67.25;100461.92;1821828;78;20947;-86
2022/06/12 04:21:04;;;;;;;27.10;15.65;;;;;;;19.62;66.91;100459.98;1821787;78;20938;-89
2022/06/12 04:23:56;;;;;;;23.65;17.00;;;;;;;19.75;66.56;100456.95;1812064;78;21302;-87
2022/06/12 04:26:37;;;;;;;25.02;15.88;;;;;;;20.08;66.20;100458.00;1821668;78;20970;-88
2022/06/12 04:29:14;;;;;;;23.77;15.45;;;;;;;20.53;64.37;100460.03;1821658;78;20912;-87
2022/06/12 04:31:45;;;;;;;25.37;15.78;;;;;;;20.96;62.76;100452.84;1821560;78;21014;-87
2022/06/12 04:34:20;;;;;;;24.70;16.02;;;;;;;21.36;60.75;100446.39;1821757;78;20946;-87
2022/06/12 04:36:51;;;;;;;21.23;15.70;;;;;;;21.71;59.57;100443.40;1821774;78;21228;-87
2022/06/12 04:39:23;;;;;;;20.70;16.12;;;;;;;22.08;58.56;100448.67;1821821;78;20911;-87
2022/06/12 04:41:50;;;;;;;25.85;15.88;;;;;;;22.38;57.05;100444.92;1821962;78;21326;-87
2022/06/12 04:44:17;;;;;;;21.12;16.60;;;;;;;22.59;56.29;100438.14;1822317;78;20884;-87
2022/06/12 04:46:45;;;;;;;17.85;15.13;;;;;;;22.74;54.92;100442.59;1821928;78;20978;-87
2022/06/12 04:49:18;;;;;;;24.07;15.25;;;;;;;22.87;54.68;100444.66;1822030;78;21142;-87
2022/06/12 04:51:45;;;;;;;19.92;15.85;;;;;;;22.94;54.42;100436.77;1821762;78;21460;-89
2022/06/12 04:54:13;;;;;;;19.42;15.93;;;;;;;22.95;54.60;100439.27;1822171;78;20947;-88
2022/06/12 04:56:40;;;;;;;21.37;15.83;;;;;;;22.96;54.57;100435.57;1822035;78;21002;-87
2022/06/12 04:59:07;;;;;;;19.65;15.30;;;;;;;22.95;54.82;100439.78;1822298;78;20911;-87
2022/06/12 05:01:36;;;;;;;19.20;15.23;;;;;;;22.94;54.95;100434.09;1822199;78;21233;-86
2022/06/12 05:04:05;;;;;;;22.35;16.90;;;;;;;22.90;55.36;100432.77;1821989;78;20907;-89
2022/06/12 05:06:32;;;;;;;25.40;16.07;;;;;;;22.87;55.74;100436.64;1822392;78;21506;-87
2022/06/12 05:08:59;;;;;;;29.40;18.02;;;;;;;22.93;56.13;100433.77;1822241;78;20939;-88
2022/06/12 05:11:25;;;;;;;23.27;16.05;;;;;;;23.17;55.95;100434.97;1821989;78;20871;-86
2022/06/12 05:13:52;;;;;;;29.50;16.02;;;;;;;23.59;55.20;100436.80;1823803;78;21484;-88
2022/06/12 05:16:37;;;;;;;21.73;14.95;;;;;;;24.10;54.06;100439.66;1825546;78;21405;-88
2022/06/12 05:19:06;;;;;;;17.75;14.20;;;;;;;24.70;53.06;100441.78;1825677;78;21377;-87
2022/06/12 05:21:33;;;;;;;21.50;15.00;;;;;;;25.42;51.70;100428.77;1825548;78;21475;-88
2022/06/12 05:24:01;;;;;;;20.72;14.58;;;;;;;25.93;50.42;100426.90;1825780;78;20919;-88
2022/06/12 05:26:28;;;;;;;20.80;15.20;;;;;;;26.34;49.52;100428.75;1825581;78;21247;-89
2022/06/12 05:28:55;;;;;;;18.45;15.83;;;;;;;26.67;49.04;100425.69;1825762;78;20971;-88
2022/06/12 05:31:22;;;;;;;19.70;14.70;;;;;;;27.08;48.23;100419.90;1826285;78;20959;-89
2022/06/12 05:33:49;;;;;;;16.77;14.58;;;;;;;27.52;47.49;100418.98;1828459;77;20979;-87
2022/06/12 05:36:16;;;;;;;19.23;13.60;;;;;;;27.94;46.72;100415.00;1827794;77;21182;-88
2022/06/12 05:38:43;;;;;;;18.37;14.45;;;;;;;28.26;45.98;100409.73;1828026;77;21142;-88
2022/06/12 05:41:10;;;;;;;17.65;14.00;;;;;;;28.59;45.12;100417.70;1827849;77;21045;-88
2022/06/12 05:43:40;;;;;;;20.85;14.93;;;;;;;28.92;44.20;100409.38;1827834;77;21204;-88
2022/06/12 05:46:10;;;;;;;20.65;13.53;;;;;;;29.18;43.46;100402.70;1827949;77;20911;-88
2022/06/12 05:48:37;;;;;;;16.75;13.60;;;;;;;29.35;43.35;100402.46;1828138;78;20867;-88
2022/06/12 05:51:06;;;;;;;16.82;14.95;;;;;;;29.60;43.00;100399.73;1827832;78;21133;-88
2022/06/12 05:53:35;;;;;;;16.70;13.93;;;;;;;29.93;42.36;100402.11;1827734;77;20989;-88
2022/06/12 05:56:05;;;;;;;17.23;14.78;;;;;;;30.23;41.72;100401.34;1827746;77;20990;-86
2022/06/12 05:58:34;;;;;;;18.20;14.33;;;;;;;30.55;40.72;100399.30;1827426;77;20981;-87
2022/06/12 06:01:02;;;;;;;20.12;14.95;;;;;;;30.74;40.03;100403.30;1827478;77;20915;-88
2022/06/12 06:03:28;;;;;;;22.42;15.98;;;;;;;30.91;39.65;100399.44;1827529;77;21053;-88
2022/06/12 06:05:55;;;;;;;27.45;15.45;;;;;;;31.11;39.20;100395.06;1827799;77;21114;-89
2022/06/12 06:08:22;;;;;;;50.33;45.20;;;;;;;31.30;38.83;100394.42;1828074;77;20899;-88
2022/06/12 06:10:50;;;;;;;25.10;17.37;;;;;;;31.45;38.77;100393.45;1828183;77;20911;-89
2022/06/12 06:13:16;;;;;;;19.70;15.70;;;;;;;31.62;38.52;100389.52;1827478;78;20947;-88
2022/06/12 06:15:45;;;;;;;30.80;16.00;;;;;;;31.78;38.28;100396.09;1824996;78;21129;-87
2022/06/12 06:18:12;;;;;;;16.97;13.48;;;;;;;31.98;38.52;100388.42;1825053;78;20947;-88
2022/06/12 06:20:40;;;;;;;18.35;13.80;;;;;;;32.20;37.83;100387.23;1824766;77;20852;-87
2022/06/12 06:23:09;;;;;;;16.60;13.93;;;;;;;32.50;37.20;100387.52;1825147;78;20794;-88
2022/06/12 06:25:37;;;;;;;16.67;14.63;;;;;;;32.75;36.89;100387.22;1825204;78;20864;-86
2022/06/12 06:28:04;;;;;;;14.45;13.00;;;;;;;33.00;36.49;100387.36;1825065;77;21119;-87
2022/06/12 06:30:31;;;;;;;22.30;14.70;;;;;;;33.24;36.21;100377.18;1825159;78;20809;-88
2022/06/12 06:32:57;;;;;;;19.65;13.48;;;;;;;33.45;35.43;100375.03;1824908;78;20931;-87
2022/06/12 06:35:24;;;;;;;13.60;12.10;;;;;;;33.59;35.51;100374.16;1822175;78;20899;-89
2022/06/12 06:37:51;;;;;;;15.45;12.98;;;;;;;33.76;35.00;100378.20;1821809;78;20887;-89
2022/06/12 06:40:21;;;;;;;16.65;14.87;;;;;;;34.01;35.24;100377.70;1822340;78;21310;-88
2022/06/12 06:42:49;;;;;;;14.93;13.28;;;;;;;34.26;34.60;100379.95;1821937;78;20919;-88
2022/06/12 06:48:02;;;;;;;13.90;11.88;;;;;;;34.36;34.50;100384.67;1821967;78;20963;-88
2022/06/12 06:50:29;;;;;;;15.70;12.40;;;;;;;34.69;34.12;100373.88;1822107;78;20899;-89
2022/06/12 06:52:57;;;;;;;19.05;12.43;;;;;;;34.89;33.13;100379.49;1821887;78;21902;-88
2022/06/12 06:55:26;;;;;;;18.50;11.45;;;;;;;35.00;33.35;100379.05;1821801;78;20941;-89
2022/06/12 06:57:52;;;;;;;38.38;13.32;;;;;;;35.16;33.25;100376.73;1821966;78;21416;-87
2022/06/12 07:00:24;;;;;;;17.65;12.03;;;;;;;35.25;32.65;100379.25;1822238;78;20891;-87
2022/06/12 07:02:51;;;;;;;12.65;11.20;;;;;;;35.36;32.68;100371.95;1822832;78;21342;-87
2022/06/12 07:05:18;;;;;;;14.33;10.90;;;;;;;35.57;32.54;100372.89;1822232;78;21080;-87
2022/06/12 07:07:46;;;;;;;13.78;10.98;;;;;;;35.64;32.15;100370.80;1822050;78;20923;-89
2022/06/12 07:10:18;;;;;;;12.23;10.63;;;;;;;35.76;32.11;100371.94;1821734;78;21401;-88
2022/06/12 07:12:44;;;;;;;16.65;12.85;;;;;;;35.93;32.35;100373.63;1821936;78;21413;-88
2022/06/12 07:15:11;;;;;;;11.22;10.03;;;;;;;36.21;32.18;100375.13;1822314;78;20915;-88
2022/06/12 07:17:39;;;;;;;20.95;12.68;;;;;;;36.56;31.59;100374.94;1822357;78;21133;-89
2022/06/12 07:20:10;;;;;;;11.65;10.58;;;;;;;36.81;31.01;100371.43;1822904;78;20955;-91
2022/06/12 07:22:39;;;;;;;14.98;13.15;;;;;;;36.91;30.85;100366.78;1823396;78;20884;-88
2022/06/12 07:25:08;;;;;;;12.58;8.68;;;;;;;37.02;30.08;100368.97;1791349;78;21352;-88
2022/06/12 07:27:35;;;;;;;12.75;8.70;;;;;;;37.17;30.09;100363.23;1817046;78;20974;-88
2022/06/12 07:30:03;;;;;;;16.32;12.65;;;;;;;37.38;29.99;100362.11;1821981;78;21287;-89
2022/06/12 07:32:30;;;;;;;10.45;9.20;;;;;;;37.57;29.34;100358.23;1821670;78;20888;-90
2022/06/12 07:34:57;;;;;;;11.83;8.78;;;;;;;37.68;29.48;100354.92;1821981;78;20927;-89
2022/06/12 07:37:23;;;;;;;11.43;8.38;;;;;;;37.86;29.43;100362.50;1822245;78;20895;-90
2022/06/12 07:39:50;;;;;;;10.60;9.48;;;;;;;37.90;29.33;100358.10;1822962;78;21354;-89
2022/06/12 07:42:17;;;;;;;9.48;7.80;;;;;;;38.00;29.38;100352.30;1822396;78;21248;-89
2022/06/12 07:44:44;;;;;;;12.33;9.18;;;;;;;38.04;28.78;100358.36;1821895;78;21369;-88
2022/06/12 07:47:10;;;;;;;12.95;11.55;;;;;;;37.99;28.74;100353.42;1822375;78;20930;-90
2022/06/12 07:49:39;;;;;;;8.53;7.70;;;;;;;37.84;28.41;100351.04;1822292;78;20893;-90
2022/06/12 07:52:16;;;;;;;9.30;8.20;;;;;;;37.50;28.60;100350.29;1822482;78;20955;-90
2022/06/12 07:54:48;;;;;;;;;;;;;;;37.10;29.38;100358.05;1819135;78;20840;-90
2022/06/12 07:57:14;;;;;;;11.70;7.58;;;;;;;36.92;29.72;100357.48;1822180;78;20106;-90
2022/06/12 07:59:41;;;;;;;8.50;7.67;;;;;;;36.91;29.84;100360.50;1822179;78;20979;-90
2022/06/12 08:02:09;;;;;;;11.35;7.35;;;;;;;36.99;30.42;100354.47;1822520;78;20886;-90
2022/06/12 08:04:38;;;;;;;8.55;7.70;;;;;;;37.19;30.23;100359.12;1822417;78;20911;-89
2022/06/12 08:07:06;;;;;;;8.58;7.35;;;;;;;37.48;30.18;100348.38;1822537;77;20946;-91
2022/06/12 08:09:33;;;;;;;7.80;7.00;;;;;;;37.80;29.58;100350.48;1822411;78;20895;-89
2022/06/12 08:11:59;;;;;;;8.43;6.78;;;;;;;38.14;29.13;100349.27;1822133;78;20903;-89
2022/06/12 08:14:26;;;;;;;12.95;11.75;;;;;;;38.46;28.75;100349.31;1823585;78;20938;-90
2022/06/12 08:16:54;;;;;;;9.78;6.62;;;;;;;38.71;28.11;100341.47;1825873;78;21471;-86
2022/06/12 08:22:07;;;;;;;11.40;9.30;;;;;;;38.99;27.75;100339.89;1826075;78;21302;-90
2022/06/12 08:24:35;;;;;;;11.50;10.32;;;;;;;39.08;27.47;100339.52;1825712;78;20887;-87
2022/06/12 08:29:34;;;;;;;6.25;5.45;;;;;;;39.01;27.51;100338.23;1855262;77;23240;-91
2022/06/12 08:32:07;;;;;;;9.20;8.30;;;;;;;39.10;27.68;100333.75;1823436;78;20903;-90
2022/06/12 08:34:41;;;;;;;18.17;15.93;;;;;;;39.25;26.77;100333.59;1791180;78;21291;-88
2022/06/12 08:37:16;;;;;;;6.67;6.05;;;;;;;39.30;26.47;100339.58;1823220;78;20903;-90
2022/06/12 08:39:42;;;;;;;4.85;4.45;;;;;;;39.23;26.37;100330.32;1823770;78;20931;-90
2022/06/12 08:42:17;;;;;;;8.13;7.45;;;;;;;39.32;26.61;100327.20;1823017;78;20919;-88
2022/06/12 08:45:19;;;;;;;9.48;8.38;;;;;;;39.53;26.52;100320.96;1823492;78;20899;-90
2022/06/12 08:47:59;;;;;;;6.00;5.40;;;;;;;39.64;25.98;100320.81;1823962;77;21235;-89
2022/06/12 08:50:33;;;;;;;5.30;4.45;;;;;;;39.75;25.83;100314.89;1825303;77;20884;-88
2022/06/12 08:53:30;;;;;;;6.37;5.78;;;;;;;39.79;25.15;100313.75;1825457;78;20950;-91
2022/06/12 08:56:10;;;;;;;4.65;3.00;;;;;;;39.85;24.25;100304.94;1824172;77;21053;-89
2022/06/12 08:58:47;;;;;;;4.08;3.15;;;;;;;39.98;23.89;100309.69;1825478;77;20974;-89
2022/06/12 09:01:13;;;;;;;5.40;4.90;;;;;;;40.05;23.65;100295.59;1825200;77;21104;-86
2022/06/12 09:03:45;;;;;;;6.53;2.77;;;;;;;39.96;23.83;100293.50;1823734;78;21017;-89
2022/06/12 09:06:37;;;;;;;7.12;2.83;;;;;;;39.88;23.68;100292.78;1823290;78;20971;-88
2022/06/12 09:09:20;;;;;;;4.87;2.77;;;;;;;39.82;24.51;100289.00;1823034;78;20927;-87
2022/06/12 09:11:56;;;;;;;3.77;2.70;;;;;;;39.85;24.09;100278.28;1823244;78;20875;-88
2022/06/12 09:14:59;;;;;;;3.40;3.10;;;;;;;39.89;23.83;100273.84;1823623;78;21827;-91
2022/06/12 09:17:38;;;;;;;4.92;2.83;;;;;;;40.03;23.30;100273.09;1823197;78;20840;-89
2022/06/12 09:20:29;;;;;;;4.05;3.52;;;;;;;40.08;23.28;100268.88;1822932;78;20844;-89
2022/06/12 09:23:18;;;;;;;4.67;2.63;;;;;;;39.97;23.47;100264.09;1822841;78;21523;-88
2022/06/12 09:25:55;;;;;;;7.17;2.52;;;;;;;39.85;23.65;100263.74;1822730;78;20833;-86
2022/06/12 09:28:51;;;;;;;3.37;2.47;;;;;;;39.88;23.70;100265.32;1823196;78;21385;-88
2022/06/12 09:31:30;;;;;;;2.47;2.25;;;;;;;39.93;23.89;100256.19;1826041;78;20930;-87
2022/06/12 09:34:30;;;;;;;4.75;3.12;;;;;;;40.01;23.68;100251.97;1825973;78;21341;-88
2022/06/12 09:40:40;;;;;;;3.52;3.10;;;;;;;40.11;23.50;100247.13;1825767;78;20915;-89
2022/06/12 09:43:15;;;;;;;2.60;2.40;;;;;;;40.11;23.44;100246.30;1825830;78;21227;-87
2022/06/12 09:46:23;;;;;;;3.65;2.65;;;;;;;40.09;23.72;100243.03;1825085;78;20887;-88
2022/06/12 09:49:04;;;;;;;6.75;6.12;;;;;;;39.93;23.32;100238.33;1759217;81;20958;-90
2022/06/12 09:51:43;;;;;;;9.05;8.23;;;;;;;39.82;23.46;100243.69;1759903;81;21479;-85
2022/06/12 09:54:48;;;;;;;4.60;3.95;;;;;;;39.57;23.24;100243.75;1759710;81;21196;-87
2022/06/12 09:57:47;;;;;;;122.72;112.50;;;;;;;39.49;23.27;100228.50;1759634;81;21229;-90
2022/06/12 10:00:34;;;;;;;6.87;3.70;;;;;;;39.41;22.73;100232.73;1759441;81;20945;-86
2022/06/12 10:03:16;;;;;;;6.08;3.77;;;;;;;39.27;23.36;100220.26;1759415;81;20939;-88
2022/06/12 10:06:15;;;;;;;3.40;2.27;;;;;;;39.45;22.40;100223.36;1706989;83;20993;-87
2022/06/12 10:08:51;;;;;;;5.00;2.20;;;;;;;39.64;20.83;100217.30;1720368;82;20896;-88
2022/06/12 10:11:26;;;;;;;3.08;2.30;;;;;;;39.74;21.46;100214.42;1690721;84;21368;-86
2022/06/12 10:14:07;;;;;;;3.33;2.52;;;;;;;39.83;20.92;100206.36;1720185;83;21018;-86
2022/06/12 10:16:59;;;;;;;4.72;2.40;;;;;;;39.94;21.16;100209.77;1696945;83;20895;-89
2022/06/12 10:19:44;;;;;;;4.42;2.50;;;;;;;40.08;20.70;100196.08;1690253;85;20928;-86
2022/06/12 10:22:23;;;;;;;8.45;5.42;;;;;;;40.10;21.21;100199.34;1720432;83;21414;-86
2022/06/12 10:24:49;;;;;;;3.12;2.50;;;;;;;40.15;21.35;100196.50;1764208;80;21111;-88
2022/06/12 10:27:18;;;;;;;5.17;3.00;;;;;;;40.03;21.17;100194.80;1783722;80;20820;-88
2022/06/12 10:30:00;;;;;;;5.90;3.40;;;;;;;39.88;21.03;100188.42;1756351;80;20986;-91
2022/06/12 10:32:47;;;;;;;6.55;3.25;;;;;;;39.76;21.45;100183.93;1752143;82;20907;-85
2022/06/12 10:35:15;;;;;;;3.25;2.95;;;;;;;39.73;21.45;100186.72;1751841;82;20939;-88
2022/06/12 10:37:43;;;;;;;3.25;2.92;;;;;;;39.71;22.30;100179.87;1752246;80;21148;-87
2022/06/12 10:40:23;;;;;;;4.10;2.70;;;;;;;39.78;22.90;100180.34;1751908;82;20904;-87
2022/06/12 10:43:06;;;;;;;4.60;4.10;;;;;;;39.90;23.00;100177.95;1751779;82;20998;-88
2022/06/12 10:45:36;;;;;;;8.50;2.60;;;;;;;40.07;23.13;100172.48;1748855;82;20992;-88
2022/06/12 10:48:25;;;;;;;2.87;2.37;;;;;;;40.14;22.46;100170.97;1751776;80;20991;-88
2022/06/12 10:50:55;;;;;;;2.87;2.52;;;;;;;40.07;22.29;100169.74;1751487;82;21472;-88
2022/06/12 10:53:24;;;;;;;6.58;4.92;;;;;;;39.81;22.09;100170.68;1751869;80;20887;-88
2022/06/12 10:56:01;;;;;;;4.15;2.47;;;;;;;39.57;22.31;100175.13;1751641;82;21483;-89
2022/06/12 10:59:13;;;;;;;4.20;2.20;;;;;;;39.44;22.72;100173.13;1753471;81;20880;-88
2022/06/12 11:02:13;;;;;;;4.17;2.45;;;;;;;39.45;22.55;100167.10;1754030;82;21061;-88
2022/06/12 11:04:51;;;;;;;7.83;2.98;;;;;;;39.47;22.13;100164.31;1752595;80;21121;-89
2022/06/12 11:07:23;;;;;;;5.47;2.40;;;;;;;39.47;22.32;100157.45;1751180;82;20947;-88
2022/06/12 11:09:59;;;;;;;;;;;;;;;39.54;22.48;100150.22;1754391;82;21119;-88
2022/06/12 11:12:44;;;;;;;8.28;6.80;;;;;;;39.59;21.66;100144.64;1741376;80;20102;-89
2022/06/12 11:15:35;;;;;;;4.92;3.12;;;;;;;39.55;21.80;100144.41;1720803;83;21007;-88
2022/06/12 11:18:34;;;;;;;4.03;3.62;;;;;;;39.51;21.68;100143.94;1749200;82;21766;-89
2022/06/12 11:21:39;;;;;;;6.28;4.75;;;;;;;39.46;22.14;100136.59;1720628;83;21535;-88
2022/06/12 11:24:16;;;;;;;6.70;4.47;;;;;;;39.40;21.77;100132.32;1749266;82;20892;-88
2022/06/12 11:27:32;;;;;;;4.87;3.62;;;;;;;39.23;21.74;100121.81;1720873;83;21471;-90
2022/06/12 11:30:13;;;;;;;7.92;4.30;;;;;;;39.17;22.35;100118.31;1776658;80;20839;-88
2022/06/12 11:33:09;;;;;;;5.47;4.50;;;;;;;38.91;22.22;100112.34;1822388;78;21136;-89
2022/06/12 11:36:00;;;;;;;4.05;2.87;;;;;;;38.69;22.55;100114.26;1821481;78;20895;-88
2022/06/12 11:38:38;;;;;;;6.92;4.97;;;;;;;38.50;22.52;100121.59;1822476;78;20915;-89
2022/06/12 11:41:13;;;;;;;6.00;3.92;;;;;;;38.35;23.13;100117.05;1822234;78;20880;-92
2022/06/12 11:43:44;;;;;;;4.47;3.55;;;;;;;38.26;23.04;100131.94;1822928;78;20923;-90
2022/06/12 11:46:36;;;;;;;7.83;4.17;;;;;;;37.93;22.86;100148.63;1823736;78;21447;-91
2022/06/12 11:49:27;;;;;;;7.62;3.02;;;;;;;37.61;24.34;100166.39;1824689;78;20907;-87
2022/06/12 11:52:19;;;;;;;6.67;2.80;;;;;;;37.07;25.87;100173.45;1823758;78;21358;-86
2022/06/12 11:55:14;;;;;;;7.70;2.98;;;;;;;36.35;26.77;100180.15;1822187;78;21081;-89
2022/06/12 11:58:12;;;;;;;7.85;2.77;;;;;;;35.61;27.64;100184.40;1822474;78;20966;-88
2022/06/12 12:01:04;;;;;;;5.78;2.65;;;;;;;34.89;28.63;100183.29;1822874;78;21131;-91
2022/06/12 12:03:48;;;;;;;3.50;2.95;;;;;;;34.15;29.61;100191.73;1822089;78;20923;-88
2022/06/12 12:06:53;;;;;;;2.50;2.25;;;;;;;33.60;30.61;100206.39;1821968;78;20916;-87
2022/06/12 12:10:04;;;;;;;4.05;2.70;;;;;;;33.27;31.52;100204.06;1822171;78;21535;-89
2022/06/12 12:12:43;;;;;;;6.37;5.72;;;;;;;32.89;32.55;100187.23;1822309;78;21475;-90